Metar Cercanos

 

LEPA - Palma De Mallorc, Spain
Distance from station: ONO 38km
Actualización: 23/02/2018 21:00
Few Clouds
Few Clouds
 Viento del NE
Viento: NE 6 km/h
Temperatura: 5°C
Rocío: 3°C
Humedad: 87%
Barómetro: 1008 hPa
Clouds: Few Clouds
Visibility: 10 km
Cloud details: Few Clouds 762 m
2018/02/23 20:00 LEPA 232000Z 04003KT 9999 FEW025 05/03 Q1008 NOSIG
LEMH - Mahon/Menorca Is, Spain
Distance from station: ENE 105km
Actualización: 23/02/2018 21:00
Few Clouds
Few Clouds
 Viento del NNO
Viento: NNO 6 km/h
Temperatura: 6°C
Rocío: 3°C
Humedad: 81%
Barómetro: 1007 hPa
Clouds: Few Clouds
Visibility: 10 km
Cloud details: Few Clouds 914 m
2018/02/23 20:00 LEMH 232000Z 34003KT 9999 FEW030 06/03 Q1007
 
LEIB - Ibiza/Es Codola, Spain
Distance from station: OSO 165km
Actualización: 23/02/2018 21:00
Few Clouds
Few Clouds
 Viento del NNO
Viento: NNO 6 km/h
Temperatura: 5°C
Rocío: 3°C
Humedad: 87%
Barómetro: 1007 hPa
Clouds: Few Clouds
Visibility: 10 km
Cloud details: Few Clouds 610 m
2018/02/23 20:00 LEIB 232000Z 33003KT 280V010 9999 FEW020 05/03 Q1007 NOSIG
LEBL - Barcelona Airpor, Spain
Distance from station: NNO 225km
Actualización: 23/02/2018 21:00
Few Clouds
Few Clouds
 Viento del NO
Viento: NO 9 km/h
Temperatura: 6°C
Sensación frio: 4°C
Rocío: 1°C
Humedad: 71%
Barómetro: 1007 hPa
Clouds: Few Clouds
Visibility: 10 km
Cloud details: Few Clouds 610 m
2018/02/23 20:00 LEBL 232000Z 31005KT 9999 FEW020 06/01 Q1007 NOSIG
 
LEVC - Valencia (civ/Mi, Spain
Distance from station: NO 188km
Actualización: 23/02/2018 21:00
Despejado
Despejado
 Viento del varies
Viento: varies 4 km/h
Temperatura: 8°C
Rocío: 1°C
Humedad: 62%
Barómetro: 1007 hPa
Resumen: Despejado
Visibility: greater than 10 km
2018/02/23 20:00 LEVC 232000Z VRB02KT CAVOK 08/01 Q1007 NOSIG
LEGE - Gerona/Costa Bra, Spain
Distance from station: N 276km
Actualización: 23/02/2018 21:00
Few Clouds
Few Clouds
 Viento del calm
Viento: Calma
Temperatura: 3°C
Rocío: 1°C
Humedad: 87%
Barómetro: 1007 hPa
Clouds: Few Clouds
Visibility: 7 km
Cloud details: Few Clouds 1219 m
2018/02/23 20:00 LEGE 232000Z 00000KT 7000 FEW040 03/01 Q1007
 
LEAL - Alicante/El Alte, Spain
Distance from station: OSO 344km
Actualización: 23/02/2018 21:00
Despejado
Despejado
 Viento del varies
Viento: varies 4 km/h
Temperatura: 6°C
Rocío: 2°C
Humedad: 76%
Barómetro: 1007 hPa
Resumen: Despejado
Visibility: greater than 10 km
2018/02/23 20:00 LEAL 232000Z VRB02KT CAVOK 06/02 Q1007 NOSIG
LEAM - Almeria Airport, Spain
Distance from station: SSO 56km
Actualización: 23/02/2018 21:00
Few Clouds
Few Clouds
 Viento del NE
Viento: NE 13 km/h
Temperatura: 11°C
Rocío: 5°C
Humedad: 67%
Barómetro: 1006 hPa
Clouds: Few Clouds
Visibility: 10 km
Cloud details: Few Clouds 914 m
2018/02/23 20:00 LEAM 232000Z 05007KT 9999 FEW030 11/05 Q1006
 
LEZG - Zaragoza (mil/Ci, Spain
Distance from station: NO 431km
Actualización: 23/02/2018 21:00
Despejado
Despejado
 Viento del ONO
Viento: ONO 19 km/h
Temperatura: 3°C
Sensación frio: -2°C
Rocío: -2°C
Humedad: 70%
Barómetro: 1007 hPa
Resumen: Despejado
Visibility: greater than 10 km
2018/02/23 20:00 LEZG 232000Z 29010KT CAVOK 03/M02 Q1007
LEMD - Madrid/Barajas, Spain
Distance from station: ONO 234km
Actualización: 23/02/2018 21:00
Despejado
Despejado
 Viento del SO
Viento: SO 7 km/h
Temperatura: 8°C
Sensación frio: 7°C
Rocío: -11°C
Humedad: 25%
Barómetro: 1004 hPa
Resumen: Despejado
Visibility: greater than 10 km
2018/02/23 20:00 LEMD 232000Z 23004KT 190V280 CAVOK 08/M11 Q1004 NOSIG
 
LEGR - Granada Airport, Spain
Distance from station: OSO 62km
Actualización: 23/02/2018 21:00
Despejado
Despejado
 Viento del S
Viento: S 9 km/h
Temperatura: 7°C
Sensación frio: 6°C
Rocío: 1°C
Humedad: 66%
Barómetro: 1004 hPa
Resumen: Despejado
Visibility: greater than 10 km
2018/02/23 20:00 LEGR 232000Z 17005KT CAVOK 07/01 Q1004
LEMG - Malaga (civ/Mil), Spain
Distance from station: OSO 227km
Actualización: 23/02/2018 21:00
Muy nuboso
Muy nuboso
 Viento del E
Viento: E 15 km/h
Temperatura: 13°C
Rocío: 7°C
Humedad: 67%
Barómetro: 1005 hPa
Clouds: Muy nuboso
Visibility: 10 km
Cloud details: Few Clouds 549 m
Parcialmente nuboso 762 m
Muy nuboso 1067 m
2018/02/23 20:00 LEMG 232000Z 10008KT 9999 FEW018 SCT025 BKN035 13/07 Q1005 NOSIG
 
LEZL - Sevilla (civ/Mil, Spain
Distance from station: S 318km
Actualización: 23/02/2018 21:00
Despejado
Despejado
 Viento del calm
Viento: Calma
Temperatura: 10°C
Rocío: -2°C
Humedad: 43%
Barómetro: 1003 hPa
Resumen: Despejado
Visibility: greater than 10 km
2018/02/23 20:00 LEZL 232000Z 00000KT CAVOK 10/M02 Q1003 NOSIG
LEVT - Vitoria, Spain
Distance from station: NO 226km
Actualización: 23/02/2018 21:00
Muy nuboso
Muy nuboso
 Viento del NE
Viento: NE 7 km/h
Temperatura: 2°C
Sensación frio: 0°C
Rocío: -1°C
Humedad: 81%
Barómetro: 1007 hPa
Clouds: Muy nuboso
Visibility: 10 km
Cloud details: Muy nuboso 732 m
2018/02/23 20:00 LEVT 232000Z 04004KT 9999 BKN024 02/M01 Q1007
 
LEBB - Bilbao/Sondica, Spain
Distance from station: NNO 235km
Actualización: 23/02/2018 21:00
Muy nuboso
Muy nuboso
 Viento del varies
Viento: varies 4 km/h
Temperatura: 6°C
Rocío: 1°C
Humedad: 71%
Barómetro: 1009 hPa
Clouds: Muy nuboso
Visibility: 10 km
Cloud details: Muy nuboso 1189 m
2018/02/23 20:00 LEBB 232000Z VRB02KT 9999 BKN039 06/01 Q1009 NOSIG
LESO - San Sebastian/Fu, Spain
Distance from station: N 231km
Actualización: 23/02/2018 21:00
Muy nuboso
Muy nuboso
 Viento del SE
Viento: SE 6 km/h
Temperatura: 5°C
Rocío: -1°C
Humedad: 66%
Barómetro: 1010 hPa
Clouds: Muy nuboso
Visibility: 10 km
Cloud details: Muy nuboso 1067 m
2018/02/23 20:00 LESO 232000Z 13003KT 9999 BKN035 05/M01 Q1010
 
LEVD - Valladolid(Mil/C, Spain
Distance from station: ONO 239km
Actualización: 23/02/2018 21:00
Despejado
Despejado
 Viento del N
Viento: N 9 km/h
Temperatura: 0°C
Sensación frio: -3°C
Rocío: -10°C
Humedad: 47%
Barómetro: 1005 hPa
Resumen: Despejado
Visibility: greater than 10 km
2018/02/23 20:00 LEVD 232000Z 36005KT CAVOK M00/M10 Q1005
LESA - Salamanca (civ/M, Spain
Distance from station: ONO 349km
Actualización: 23/02/2018 19:00
NOT Current
Despejado
Despejado
 Viento del ENE
Viento: ENE 11 km/h
Temperatura: 5°C
Sensación frio: 2°C
Rocío: -11°C
Humedad: 31%
Barómetro: 1004 hPa
Resumen: Despejado
Visibility: greater than 10 km
2018/02/23 18:00 LESA 231800Z 06006KT CAVOK 05/M11 Q1004
 
LEXJ - Santander/Paraya, Spain
Distance from station: NNO 247km
Actualización: 23/02/2018 21:00
Few Clouds
Few Clouds
 Viento del ESE
Viento: ESE 9 km/h
Temperatura: 5°C
Sensación frio: 3°C
Rocío: 2°C
Humedad: 81%
Barómetro: 1009 hPa
Clouds: Few Clouds
Visibility: 10 km
Cloud details: Few Clouds 1158 m
2018/02/23 20:00 LEXJ 232000Z 12005KT 9999 FEW038 05/02 Q1009
LEAS - Asturias/Aviles, Spain
Distance from station: NO 214km
Actualización: 23/02/2018 21:00
Despejado
Despejado
 Viento del ESE
Viento: ESE 9 km/h
Temperatura: 5°C
Sensación frio: 3°C
Rocío: 1°C
Humedad: 76%
Barómetro: 1007 hPa
Resumen: Despejado
Visibility: greater than 10 km
2018/02/23 20:00 LEAS 232000Z 12005KT 080V160 CAVOK 05/01 Q1007 NOSIG
 
LECO - La Coruna/Alvedr, Spain
Distance from station: ONO 222km
Actualización: 23/02/2018 21:00
Despejado
Despejado
 Viento del NO
Viento: NO 6 km/h
Temperatura: 8°C
Rocío: 3°C
Humedad: 71%
Barómetro: 1005 hPa
Resumen: Despejado
Visibility: greater than 10 km
2018/02/23 20:00 LECO 232000Z 32003KT 280V350 CAVOK 08/03 Q1005 NOSIG
LEVX - Vigo/Peinador, Spain
Distance from station: O 214km
Actualización: 23/02/2018 21:00
Despejado
Despejado
 Viento del NNO
Viento: NNO 7 km/h
Temperatura: 7°C
Sensación frio: 6°C
Rocío: 0°C
Humedad: 61%
Barómetro: 1005 hPa
Resumen: Despejado
Visibility: greater than 10 km
2018/02/23 20:00 LEVX 232000Z 33004KT 250V010 CAVOK 07/M00 Q1005 NOSIG